createdAt,value
2019-05-01T00:00:30.463Z,12.80
2019-05-01T00:03:13.736Z,11.67
2019-05-01T00:05:44.920Z,12.07
2019-05-01T00:08:15.010Z,11.10
2019-05-01T00:10:44.427Z,11.73
2019-05-01T00:13:13.943Z,11.23
2019-05-01T00:15:43.660Z,11.57
2019-05-01T00:18:13.179Z,10.73
2019-05-01T00:20:42.597Z,10.23
2019-05-01T00:23:12.031Z,10.57
2019-05-01T00:25:41.506Z,10.03
2019-05-01T00:28:12.620Z,11.00
2019-05-01T00:30:42.122Z,11.33
2019-05-01T00:33:11.703Z,11.00
2019-05-01T00:35:41.303Z,9.50
2019-05-01T00:38:10.742Z,10.77
2019-05-01T00:40:40.217Z,11.00
2019-05-01T00:43:09.671Z,10.67
2019-05-01T00:45:39.237Z,10.60
2019-05-01T00:48:08.692Z,10.10
2019-05-01T00:50:38.103Z,10.00
2019-05-01T00:53:09.162Z,10.43
2019-05-01T00:55:40.207Z,9.50
2019-05-01T00:58:27.514Z,10.07
2019-05-01T01:00:58.686Z,10.10
2019-05-01T01:03:28.691Z,8.87
2019-05-01T01:05:58.166Z,9.50
2019-05-01T01:08:27.648Z,10.50
2019-05-01T01:10:57.155Z,10.60
2019-05-01T01:13:26.613Z,9.73
2019-05-01T01:15:56.027Z,9.63
2019-05-01T01:18:25.619Z,9.23
2019-05-01T01:20:55.192Z,8.83
2019-05-01T01:23:25.466Z,9.17
2019-05-01T01:25:55.205Z,8.90
2019-05-01T01:28:25.297Z,9.63
2019-05-01T01:30:56.464Z,10.23
2019-05-01T01:33:26.094Z,10.07
2019-05-01T01:35:55.615Z,10.87
2019-05-01T01:38:25.149Z,10.63
2019-05-01T01:40:54.939Z,12.23
2019-05-01T01:43:36.175Z,13.00
2019-05-01T01:46:16.934Z,11.53
2019-05-01T01:48:46.731Z,10.93
2019-05-01T01:51:16.893Z,11.23
2019-05-01T01:53:47.565Z,11.17
2019-05-01T01:56:17.783Z,11.90
2019-05-01T01:58:47.675Z,12.23
2019-05-01T02:01:34.260Z,11.43
2019-05-01T02:04:08.431Z,11.23
2019-05-01T02:06:37.958Z,11.97
2019-05-01T02:09:08.458Z,11.80
2019-05-01T02:11:38.231Z,11.67
2019-05-01T02:14:07.858Z,11.57
2019-05-01T02:16:37.450Z,10.00
2019-05-01T02:19:06.959Z,9.73
2019-05-01T02:21:36.545Z,8.30
2019-05-01T02:24:06.064Z,9.37
2019-05-01T02:26:37.227Z,9.13
2019-05-01T02:29:14.925Z,9.27
2019-05-01T02:31:49.679Z,9.50
2019-05-01T02:34:20.696Z,8.23
2019-05-01T02:36:52.037Z,8.63
2019-05-01T02:39:23.524Z,9.60
2019-05-01T02:41:55.276Z,9.30
2019-05-01T02:44:27.807Z,9.33
2019-05-01T02:47:00.301Z,9.33
2019-05-01T02:49:50.917Z,8.93
2019-05-01T02:52:23.795Z,8.83
2019-05-01T02:54:55.584Z,9.60
2019-05-01T02:57:26.156Z,9.20
2019-05-01T02:59:57.358Z,9.30
2019-05-01T03:02:28.978Z,8.50
2019-05-01T03:04:59.228Z,9.37
2019-05-01T03:07:31.778Z,11.13
2019-05-01T03:10:03.274Z,11.70
2019-05-01T03:12:34.802Z,11.80
2019-05-01T03:15:05.623Z,12.37
2019-05-01T03:17:39.465Z,11.67
2019-05-01T03:20:17.294Z,11.87
2019-05-01T03:22:48.447Z,11.70
2019-05-01T03:25:18.599Z,11.77
2019-05-01T03:27:48.493Z,13.60
2019-05-01T03:30:17.919Z,13.17
2019-05-01T03:32:47.963Z,12.67
2019-05-01T03:35:19.322Z,13.33
2019-05-01T03:37:48.779Z,13.33
2019-05-01T03:40:18.438Z,13.20
2019-05-01T03:42:48.077Z,13.30
2019-05-01T03:45:17.941Z,13.53
2019-05-01T03:47:47.645Z,12.57
2019-05-01T03:50:18.829Z,11.50
2019-05-01T03:52:48.544Z,11.17
2019-05-01T03:55:18.080Z,9.67
2019-05-01T03:57:49.355Z,11.43
2019-05-01T04:00:20.419Z,12.07
2019-05-01T04:03:08.174Z,12.63
2019-05-01T04:05:38.005Z,13.20
2019-05-01T04:08:07.723Z,13.60
2019-05-01T04:10:39.285Z,13.67
2019-05-01T04:13:08.901Z,13.67
2019-05-01T04:15:38.627Z,14.37
2019-05-01T04:18:09.439Z,15.73
2019-05-01T04:20:39.374Z,18.80
2019-05-01T04:23:09.066Z,18.47
2019-05-01T04:25:38.781Z,16.30
2019-05-01T04:28:25.757Z,15.33
2019-05-01T04:31:00.464Z,15.03
2019-05-01T04:33:31.836Z,14.40
2019-05-01T04:36:06.579Z,12.93
2019-05-01T04:38:36.240Z,11.23
2019-05-01T04:41:05.723Z,8.17
2019-05-01T04:43:39.451Z,5.83
2019-05-01T04:46:09.066Z,4.83
2019-05-01T04:48:38.779Z,5.90
2019-05-01T04:51:08.420Z,6.13
2019-05-01T04:53:38.571Z,6.90
2019-05-01T04:56:09.376Z,7.30
2019-05-01T04:58:39.364Z,8.90
2019-05-01T05:01:08.903Z,10.27
2019-05-01T05:03:38.849Z,10.30
2019-05-01T05:06:08.833Z,10.97
2019-05-01T05:08:38.417Z,12.73
2019-05-01T05:11:09.782Z,13.03
2019-05-01T05:13:46.660Z,12.40
2019-05-01T05:16:16.791Z,12.13
2019-05-01T05:18:46.347Z,12.80
2019-05-01T05:21:16.072Z,13.30
2019-05-01T05:23:45.562Z,12.13
2019-05-01T05:26:16.457Z,11.90
2019-05-01T05:28:46.814Z,12.03
2019-05-01T05:31:18.051Z,12.20
2019-05-01T05:33:49.538Z,11.57
2019-05-01T05:36:22.186Z,11.57
2019-05-01T05:38:53.977Z,10.40
2019-05-01T05:41:24.938Z,10.97
2019-05-01T05:43:54.850Z,10.73
2019-05-01T05:46:24.797Z,9.77
2019-05-01T05:48:54.575Z,8.90
2019-05-01T05:51:29.879Z,9.80
2019-05-01T05:54:19.864Z,9.57
2019-05-01T05:56:52.959Z,8.87
2019-05-01T05:59:27.227Z,7.87
2019-05-01T06:02:02.173Z,5.93
2019-05-01T06:04:48.000Z,6.53
2019-05-01T06:07:22.148Z,7.23
2019-05-01T06:09:55.681Z,7.10
2019-05-01T06:12:46.786Z,8.10
2019-05-01T06:15:16.533Z,7.70
2019-05-01T06:17:50.486Z,8.00
2019-05-01T06:20:25.803Z,8.60
2019-05-01T06:23:20.148Z,7.80
2019-05-01T06:25:54.250Z,9.97
2019-05-01T06:28:24.687Z,10.07
2019-05-01T06:30:57.395Z,10.67
2019-05-01T06:33:26.894Z,10.13
2019-05-01T06:35:58.081Z,11.40
2019-05-01T06:38:31.570Z,12.07
2019-05-01T06:41:01.545Z,12.00
2019-05-01T06:43:36.006Z,12.00
2019-05-01T06:46:13.819Z,11.87
2019-05-01T06:48:53.504Z,12.87
2019-05-01T06:51:35.466Z,14.00
2019-05-01T06:54:16.300Z,13.47
2019-05-01T06:56:43.849Z,14.80
2019-05-01T06:59:15.853Z,15.77
2019-05-01T07:01:47.064Z,16.30
2019-05-01T07:04:16.812Z,15.43
2019-05-01T07:06:46.413Z,14.77
2019-05-01T07:09:27.376Z,16.60
2019-05-01T07:11:52.603Z,17.17
2019-05-01T07:14:20.889Z,17.60
2019-05-01T07:16:50.583Z,17.27
2019-05-01T07:19:21.857Z,17.23
2019-05-01T07:21:51.399Z,15.97
2019-05-01T07:24:24.123Z,14.43
2019-05-01T07:26:52.316Z,13.47
2019-05-01T07:29:26.092Z,13.10
2019-05-01T07:31:55.643Z,12.93
2019-05-01T07:34:26.298Z,12.20
2019-05-01T07:36:56.672Z,12.33
2019-05-01T07:39:26.236Z,12.07
2019-05-01T07:41:57.417Z,12.40
2019-05-01T07:44:33.469Z,10.93
2019-05-01T07:47:12.013Z,12.00
2019-05-01T07:49:57.495Z,11.10
2019-05-01T07:52:28.085Z,10.80
2019-05-01T07:54:58.040Z,9.97
2019-05-01T07:57:28.335Z,10.63
2019-05-01T08:00:03.638Z,10.10
2019-05-01T08:02:32.724Z,11.07
2019-05-01T08:05:05.026Z,11.07
2019-05-01T08:07:35.606Z,11.83
2019-05-01T08:10:09.866Z,10.93
2019-05-01T08:12:39.324Z,8.17
2019-05-01T08:15:08.906Z,8.47
2019-05-01T08:17:39.999Z,9.13
2019-05-01T08:20:15.054Z,10.10
2019-05-01T08:22:42.388Z,10.10
2019-05-01T08:25:12.049Z,9.73
2019-05-01T08:27:56.354Z,8.90
2019-05-01T08:30:29.204Z,7.30
2019-05-01T08:33:09.778Z,8.40
2019-05-01T08:35:37.973Z,8.60
2019-05-01T08:38:07.443Z,8.90
2019-05-01T08:40:37.372Z,7.87
2019-05-01T08:43:06.943Z,7.70
2019-05-01T08:45:42.543Z,7.53
2019-05-01T08:48:13.849Z,8.23
2019-05-01T08:50:43.466Z,8.87
2019-05-01T08:53:12.909Z,8.47
2019-05-01T08:55:45.175Z,9.10
2019-05-01T08:58:14.297Z,9.23
2019-05-01T09:00:44.621Z,8.73
2019-05-01T09:03:18.541Z,7.83
2019-05-01T09:05:45.364Z,9.03
2019-05-01T09:08:14.797Z,9.40
2019-05-01T09:10:44.231Z,9.03
2019-05-01T09:13:13.639Z,9.17
2019-05-01T09:15:48.327Z,10.17
2019-05-01T09:18:18.715Z,10.47
2019-05-01T09:20:48.709Z,10.33
2019-05-01T09:23:18.189Z,10.77
2019-05-01T09:25:55.651Z,10.23
2019-05-01T09:28:39.707Z,10.00
2019-05-01T09:31:12.250Z,11.23
2019-05-01T09:33:43.266Z,11.17
2019-05-01T09:36:12.773Z,11.07
2019-05-01T09:38:42.279Z,11.27
2019-05-01T09:41:13.472Z,12.27
2019-05-01T09:43:42.932Z,12.97
2019-05-01T09:46:12.514Z,13.30
2019-05-01T09:48:42.297Z,13.37
2019-05-01T09:51:16.254Z,12.73
2019-05-01T09:53:47.369Z,12.97
2019-05-01T09:56:21.712Z,13.40
2019-05-01T09:58:51.161Z,13.23
2019-05-01T10:01:24.560Z,13.47
2019-05-01T10:03:54.521Z,11.53
2019-05-01T10:06:24.324Z,12.33
2019-05-01T10:08:53.809Z,11.27
2019-05-01T10:11:24.751Z,11.50
2019-05-01T10:13:58.535Z,10.93
2019-05-01T10:16:25.361Z,11.10
2019-05-01T10:18:54.805Z,10.53
2019-05-01T10:21:27.287Z,11.40
2019-05-01T10:23:57.028Z,10.70
2019-05-01T10:26:28.209Z,10.90
2019-05-01T10:29:15.718Z,10.70
2019-05-01T10:32:05.856Z,11.07
2019-05-01T10:34:38.676Z,11.50
2019-05-01T10:37:09.394Z,11.20
2019-05-01T10:39:38.938Z,11.87
2019-05-01T10:42:08.455Z,11.87
2019-05-01T10:44:37.924Z,11.93
2019-05-01T10:47:07.372Z,12.77
2019-05-01T10:49:36.902Z,11.90
2019-05-01T10:52:13.885Z,11.93
2019-05-01T10:54:37.530Z,12.93
2019-05-01T10:57:07.127Z,11.77
2019-05-01T10:59:36.635Z,11.57
2019-05-01T11:02:08.003Z,11.77
2019-05-01T11:04:37.451Z,10.33
2019-05-01T11:07:07.374Z,12.10
2019-05-01T11:09:36.949Z,11.60
2019-05-01T11:12:06.364Z,11.67
2019-05-01T11:14:35.942Z,12.37
2019-05-01T11:17:06.033Z,11.43
2019-05-01T11:19:35.559Z,10.53
2019-05-01T11:22:05.272Z,10.17
2019-05-01T11:24:34.800Z,11.00
2019-05-01T11:27:04.221Z,10.67
2019-05-01T11:29:33.701Z,10.23
2019-05-01T11:32:19.664Z,9.83
2019-05-01T11:35:06.991Z,10.47
2019-05-01T11:37:46.598Z,10.47
2019-05-01T11:40:20.631Z,10.60
2019-05-01T11:42:50.151Z,11.03
2019-05-01T11:45:21.338Z,11.27
2019-05-01T11:47:50.832Z,11.37
2019-05-01T11:50:20.285Z,10.67
2019-05-01T11:52:49.728Z,10.90
2019-05-01T11:55:19.257Z,10.70
2019-05-01T11:57:48.669Z,12.10
2019-05-01T12:00:19.241Z,11.07
2019-05-01T12:02:48.734Z,10.47
2019-05-01T12:05:18.326Z,11.47
2019-05-01T12:07:47.741Z,11.60
2019-05-01T12:10:17.539Z,11.83
2019-05-01T12:12:46.969Z,11.90
2019-05-01T12:15:17.167Z,12.27
2019-05-01T12:17:51.250Z,11.10
2019-05-01T12:20:21.730Z,11.60
2019-05-01T12:22:51.711Z,11.60
2019-05-01T12:25:21.320Z,11.80
2019-05-01T12:27:51.709Z,11.73
2019-05-01T12:30:22.707Z,10.83
2019-05-01T12:32:52.173Z,10.53
2019-05-01T12:35:23.317Z,10.87
2019-05-01T12:37:55.502Z,11.03
2019-05-01T12:40:25.233Z,10.67
2019-05-01T12:42:54.695Z,9.40
2019-05-01T12:45:24.511Z,10.10
2019-05-01T12:47:55.635Z,10.27
2019-05-01T12:50:25.162Z,10.07
2019-05-01T12:53:12.420Z,9.33
2019-05-01T12:55:49.819Z,8.53
2019-05-01T12:58:19.567Z,9.97
2019-05-01T13:00:51.869Z,9.07
2019-05-01T13:03:21.308Z,9.50
2019-05-01T13:05:50.910Z,8.37
2019-05-01T13:08:20.424Z,8.13
2019-05-01T13:10:50.713Z,8.10
2019-05-01T13:13:20.166Z,8.63
2019-05-01T13:15:50.759Z,9.00
2019-05-01T13:18:20.146Z,8.83
2019-05-01T13:20:49.602Z,9.27
2019-05-01T13:23:19.058Z,9.70
2019-05-01T13:25:50.209Z,8.77
2019-05-01T13:28:30.120Z,8.60
2019-05-01T13:31:13.189Z,9.00
2019-05-01T13:33:42.639Z,8.93
2019-05-01T13:36:12.222Z,8.40
2019-05-01T13:38:41.827Z,8.17
2019-05-01T13:41:11.372Z,8.87
2019-05-01T13:43:40.884Z,8.53
2019-05-01T13:46:10.414Z,9.10
2019-05-01T13:48:39.989Z,8.63
2019-05-01T13:51:09.491Z,9.33
2019-05-01T13:53:38.923Z,8.43
2019-05-01T13:56:08.616Z,9.00
2019-05-01T13:58:38.056Z,8.70
2019-05-01T14:01:07.615Z,9.70
2019-05-01T14:03:37.150Z,9.80
2019-05-01T14:06:06.813Z,9.87
2019-05-01T14:08:36.268Z,9.93
2019-05-01T14:11:05.705Z,10.00
2019-05-01T14:13:35.224Z,10.30
2019-05-01T14:16:04.783Z,9.53
2019-05-01T14:18:34.245Z,8.73
2019-05-01T14:21:14.170Z,9.13
2019-05-01T14:23:45.279Z,9.73
2019-05-01T14:26:17.381Z,9.73
2019-05-01T14:28:46.850Z,10.67
2019-05-01T14:31:19.392Z,9.50
2019-05-01T14:33:48.863Z,10.50
2019-05-01T14:36:18.532Z,10.70
2019-05-01T14:38:48.101Z,10.40
2019-05-01T14:41:17.572Z,10.43
2019-05-01T14:43:47.347Z,10.27
2019-05-01T14:46:16.880Z,10.07
2019-05-01T14:48:46.488Z,10.13
2019-05-01T14:51:16.283Z,9.63
2019-05-01T14:53:45.913Z,9.13
2019-05-01T14:56:16.272Z,9.67
2019-05-01T14:58:47.500Z,9.23
2019-05-01T15:01:16.938Z,9.20
2019-05-01T15:03:46.389Z,7.87
2019-05-01T15:06:15.865Z,7.40
2019-05-01T15:08:45.380Z,8.73
2019-05-01T15:11:14.874Z,8.07
2019-05-01T15:14:03.834Z,8.53
2019-05-01T15:16:37.848Z,8.80
2019-05-01T15:19:14.592Z,8.70
2019-05-01T15:21:44.080Z,8.17
2019-05-01T15:24:13.527Z,8.13
2019-05-01T15:26:43.032Z,8.60
2019-05-01T15:29:12.688Z,8.67
2019-05-01T15:31:42.109Z,9.83
2019-05-01T15:34:13.239Z,9.23
2019-05-01T15:36:42.873Z,9.57
2019-05-01T15:39:14.068Z,10.30
2019-05-01T15:41:45.219Z,11.07
2019-05-01T15:44:20.061Z,10.20
2019-05-01T15:46:49.520Z,11.23
2019-05-01T15:49:18.982Z,10.37
2019-05-01T15:51:48.403Z,11.10
2019-05-01T15:54:17.888Z,10.63
2019-05-01T15:56:47.416Z,11.37
2019-05-01T15:59:16.888Z,10.97
2019-05-01T16:01:46.353Z,10.87
2019-05-01T16:04:15.777Z,10.03
2019-05-01T16:06:45.295Z,10.00
2019-05-01T16:09:19.773Z,8.70
2019-05-01T16:12:02.798Z,9.13
2019-05-01T16:14:32.309Z,10.10
2019-05-01T16:17:01.724Z,9.00
2019-05-01T16:19:31.235Z,9.33
2019-05-01T16:22:00.648Z,8.17
2019-05-01T16:24:30.089Z,8.30
2019-05-01T16:26:59.513Z,8.33
2019-05-01T16:29:28.944Z,9.40
2019-05-01T16:31:58.398Z,8.30
2019-05-01T16:34:28.275Z,9.00
2019-05-01T16:36:57.730Z,8.93
2019-05-01T16:39:45.289Z,10.23
2019-05-01T16:42:16.333Z,10.07
2019-05-01T16:44:45.798Z,9.63
2019-05-01T16:47:15.451Z,9.50
2019-05-01T16:49:44.875Z,8.63
2019-05-01T16:52:15.072Z,9.10
2019-05-01T16:54:44.491Z,9.67
2019-05-01T16:57:14.409Z,8.73
2019-05-01T16:59:43.873Z,8.50
2019-05-01T17:02:31.512Z,8.83
2019-05-01T17:05:08.594Z,8.93
2019-05-01T17:07:39.731Z,9.33
2019-05-01T17:10:17.618Z,10.07
2019-05-01T17:12:54.282Z,9.73
2019-05-01T17:15:25.547Z,9.73
2019-05-01T17:17:56.489Z,10.13
2019-05-01T17:20:26.363Z,10.67
2019-05-01T17:22:55.887Z,8.80
2019-05-01T17:25:25.324Z,8.77
2019-05-01T17:27:54.764Z,8.97
2019-05-01T17:30:41.682Z,8.60
2019-05-01T17:33:19.495Z,8.93
2019-05-01T17:35:43.222Z,9.20
2019-05-01T17:38:12.948Z,10.13
2019-05-01T17:40:42.394Z,10.07
2019-05-01T17:43:13.387Z,9.10
2019-05-01T17:45:43.206Z,9.73
2019-05-01T17:48:13.375Z,10.37
2019-05-01T17:50:42.816Z,9.73
2019-05-01T17:53:12.297Z,11.27
2019-05-01T17:55:41.947Z,11.97
2019-05-01T17:58:12.424Z,12.13
2019-05-01T18:01:00.167Z,12.50
2019-05-01T18:03:41.692Z,12.97
2019-05-01T18:06:25.012Z,13.47
2019-05-01T18:09:02.760Z,12.90
2019-05-01T18:11:25.694Z,11.83
2019-05-01T18:13:55.149Z,12.87
2019-05-01T18:16:24.682Z,13.00
2019-05-01T18:18:54.187Z,11.97
2019-05-01T18:21:23.778Z,11.70
2019-05-01T18:24:11.183Z,12.03
2019-05-01T18:26:59.226Z,12.00
2019-05-01T18:29:44.577Z,11.90
2019-05-01T18:32:15.316Z,12.07
2019-05-01T18:34:44.842Z,11.77
2019-05-01T18:37:18.965Z,12.27
2019-05-01T18:39:50.087Z,12.47
2019-05-01T18:42:19.639Z,12.97
2019-05-01T18:44:49.357Z,13.87
2019-05-01T18:47:18.912Z,13.03
2019-05-01T18:49:49.906Z,13.77
2019-05-01T18:52:19.439Z,14.53
2019-05-01T18:54:48.901Z,14.90
2019-05-01T18:57:18.360Z,13.90
2019-05-01T18:59:47.808Z,16.03
2019-05-01T19:02:20.449Z,14.63
2019-05-01T19:04:48.587Z,16.43
2019-05-01T19:07:18.063Z,16.37
2019-05-01T19:09:47.734Z,16.40
2019-05-01T19:12:17.468Z,16.47
2019-05-01T19:14:48.509Z,17.30
2019-05-01T19:17:18.259Z,17.73
2019-05-01T19:19:47.933Z,18.40
2019-05-01T19:22:17.400Z,18.83
2019-05-01T19:24:47.055Z,19.90
2019-05-01T19:27:18.896Z,20.70
2019-05-01T19:29:50.248Z,20.97
2019-05-01T19:32:21.347Z,21.97
2019-05-01T19:34:50.854Z,23.43
2019-05-01T19:37:21.869Z,23.03
2019-05-01T19:39:53.782Z,23.97
2019-05-01T19:42:23.683Z,25.40
2019-05-01T19:44:56.132Z,27.03
2019-05-01T19:47:27.399Z,27.80
2019-05-01T19:50:01.278Z,28.90
2019-05-01T19:52:32.368Z,29.30
2019-05-01T19:55:01.373Z,29.23
2019-05-01T19:57:30.506Z,29.57
2019-05-01T20:00:00.139Z,28.67
2019-05-01T20:02:29.924Z,29.27
2019-05-01T20:04:59.443Z,31.57
2019-05-01T20:07:28.899Z,30.40
2019-05-01T20:09:58.365Z,30.60
2019-05-01T20:12:30.628Z,31.00
2019-05-01T20:15:00.087Z,31.40
2019-05-01T20:17:31.043Z,30.63
2019-05-01T20:20:00.507Z,33.17
2019-05-01T20:22:29.979Z,32.03
2019-05-01T20:25:00.771Z,30.57
2019-05-01T20:27:30.194Z,33.30
2019-05-01T20:30:01.560Z,32.47
2019-05-01T20:32:31.213Z,31.57
2019-05-01T20:35:00.669Z,32.53
2019-05-01T20:37:30.095Z,32.20
2019-05-01T20:40:10.411Z,33.07
2019-05-01T20:42:30.888Z,31.37
2019-05-01T20:45:05.398Z,32.17
2019-05-01T20:47:35.389Z,32.43
2019-05-01T20:50:04.069Z,32.07
2019-05-01T20:52:33.514Z,31.63
2019-05-01T20:55:03.152Z,33.03
2019-05-01T20:57:34.235Z,32.87
2019-05-01T21:00:05.840Z,32.50
2019-05-01T21:02:38.901Z,32.47
2019-05-01T21:05:20.220Z,31.00
2019-05-01T21:07:56.639Z,31.37
2019-05-01T21:10:29.887Z,30.07
2019-05-01T21:12:59.595Z,30.63
2019-05-01T21:15:29.082Z,30.53
2019-05-01T21:17:58.455Z,29.77
2019-05-01T21:20:27.965Z,30.83
2019-05-01T21:22:57.397Z,32.97
2019-05-01T21:25:26.836Z,31.70
2019-05-01T21:27:56.278Z,31.40
2019-05-01T21:30:27.277Z,31.30
2019-05-01T21:32:59.021Z,31.50
2019-05-01T21:35:27.904Z,31.57
2019-05-01T21:37:57.353Z,30.47
2019-05-01T21:40:40.087Z,30.17
2019-05-01T21:42:59.589Z,32.13
2019-05-01T21:45:29.056Z,31.23
2019-05-01T21:47:58.477Z,32.17
2019-05-01T21:50:27.997Z,31.60
2019-05-01T21:52:58.066Z,33.03
2019-05-01T21:55:30.139Z,33.43
2019-05-01T21:57:59.788Z,33.97
2019-05-01T22:00:31.877Z,32.87
2019-05-01T22:03:01.358Z,34.43
2019-05-01T22:05:34.757Z,34.30
2019-05-01T22:08:03.759Z,32.50
2019-05-01T22:10:33.622Z,33.77
2019-05-01T22:13:05.109Z,34.43
2019-05-01T22:15:36.544Z,34.10
2019-05-01T22:18:16.832Z,34.73
2019-05-01T22:21:03.106Z,33.17
2019-05-01T22:23:34.160Z,33.43
2019-05-01T22:26:03.628Z,34.00
2019-05-01T22:28:43.736Z,32.97
2019-05-01T22:31:23.996Z,34.20
2019-05-01T22:33:55.200Z,33.70
2019-05-01T22:36:24.657Z,34.43
2019-05-01T22:38:54.068Z,33.77
2019-05-01T22:41:23.515Z,34.10
2019-05-01T22:43:53.003Z,34.60
2019-05-01T22:46:24.271Z,34.67
2019-05-01T22:48:53.788Z,35.90
2019-05-01T22:51:23.617Z,35.07
2019-05-01T22:53:56.034Z,36.33
2019-05-01T22:56:25.552Z,35.37
2019-05-01T22:58:55.256Z,36.93
2019-05-01T23:01:26.165Z,35.93
2019-05-01T23:03:57.517Z,35.67
2019-05-01T23:06:27.227Z,34.73
2019-05-01T23:08:56.641Z,36.43
2019-05-01T23:11:27.997Z,35.87
2019-05-01T23:13:57.485Z,36.20
2019-05-01T23:16:29.108Z,36.80
2019-05-01T23:18:59.707Z,36.37
2019-05-01T23:21:29.216Z,38.33
2019-05-01T23:24:01.903Z,38.27
2019-05-01T23:26:29.780Z,37.27
2019-05-01T23:28:59.304Z,37.43
2019-05-01T23:31:28.796Z,36.80
2019-05-01T23:33:58.220Z,35.37
2019-05-01T23:36:27.663Z,36.57
2019-05-01T23:38:57.102Z,36.23
2019-05-01T23:41:44.567Z,36.50
2019-05-01T23:43:58.149Z,37.53
2019-05-01T23:46:28.821Z,37.00
2019-05-01T23:48:58.277Z,38.20
2019-05-01T23:51:28.579Z,36.53
2019-05-01T23:53:58.851Z,37.17
2019-05-01T23:56:31.020Z,35.60
2019-05-01T23:58:59.553Z,37.80
